Time;durP1;ratioP1;P1;durP2;ratioP2;P2;SDS_P1;SDS_P2;PMS_P1;PMS_P2;Temp;Humidity;BMP_temperature;BMP_pressure;BME280_temperature;BME280_humidity;BME280_pressure;Samples;Min_cycle;Max_cycle;Signal;HPM_P1;HPM_P2
2021/12/10 00:01:32;;;;;;;24.67;17.65;;;5.90;99.90;;;;;;5092390;28;20071;-47
2021/12/10 00:04:01;;;;;;;25.52;18.55;;;5.80;99.90;;;;;;5092231;28;20547;-48
2021/12/10 00:06:37;;;;;;;36.95;21.33;;;5.80;99.90;;;;;;5092991;28;20107;-49
2021/12/10 00:09:12;;;;;;;25.67;17.75;;;5.80;99.90;;;;;;5093729;28;20516;-49
2021/12/10 00:11:41;;;;;;;26.85;17.52;;;5.90;99.90;;;;;;5093192;28;20028;-47
2021/12/10 00:14:08;;;;;;;35.28;22.42;;;5.80;99.90;;;;;;5091280;28;20035;-47
2021/12/10 00:16:35;;;;;;;48.05;28.65;;;5.90;99.90;;;;;;5093021;28;20084;-49
2021/12/10 00:21:58;;;;;;;46.70;29.08;;;6.00;99.90;;;;;;5070178;28;20098;-49
2021/12/10 00:24:28;;;;;;;43.58;26.95;;;6.00;99.90;;;;;;5070156;28;20039;-47
2021/12/10 00:26:55;;;;;;;36.40;25.15;;;6.00;99.90;;;;;;5070523;28;20076;-49
2021/12/10 00:29:21;;;;;;;29.40;21.15;;;6.00;99.90;;;;;;5070725;28;20103;-46
2021/12/10 00:31:52;;;;;;;22.52;16.75;;;6.10;99.90;;;;;;5053506;28;20436;-47
2021/12/10 00:34:28;;;;;;;18.35;14.43;;;6.00;99.90;;;;;;5053776;28;20464;-49
2021/12/10 00:36:59;;;;;;;19.95;15.02;;;5.90;99.90;;;;;;5070427;28;20500;-46
2021/12/10 00:39:29;;;;;;;20.63;16.10;;;6.00;99.90;;;;;;5070494;28;20373;-50
2021/12/10 00:41:58;;;;;;;17.17;13.45;;;5.90;99.90;;;;;;5070372;28;20391;-47
2021/12/10 00:44:24;;;;;;;14.52;11.75;;;6.00;99.90;;;;;;5070104;28;20047;-51
2021/12/10 00:46:50;;;;;;;16.75;13.23;;;5.90;99.90;;;;;;5069924;28;20399;-50
2021/12/10 00:49:16;;;;;;;17.33;12.77;;;5.90;99.90;;;;;;5037122;28;20037;-50
2021/12/10 00:51:42;;;;;;;15.25;12.07;;;6.20;99.90;;;;;;5070076;28;20032;-46
2021/12/10 00:54:10;;;;;;;14.70;11.55;;;6.00;99.90;;;;;;5070289;28;20107;-48
2021/12/10 00:56:36;;;;;;;14.77;12.05;;;6.00;99.90;;;;;;5053107;28;20508;-50
2021/12/10 00:59:03;;;;;;;13.95;11.75;;;5.80;99.90;;;;;;5088061;28;20059;-48
2021/12/10 01:01:31;;;;;;;14.02;10.90;;;5.80;99.90;;;;;;5092960;28;20032;-47
2021/12/10 01:04:03;;;;;;;16.95;12.27;;;5.80;99.90;;;;;;5090718;28;20120;-48
2021/12/10 01:06:29;;;;;;;16.00;11.23;;;5.80;99.90;;;;;;5091242;28;20434;-49
2021/12/10 01:08:58;;;;;;;16.20;12.38;;;6.00;99.90;;;;;;5092490;28;20380;-48
2021/12/10 01:11:34;;;;;;;14.55;12.00;;;5.90;99.90;;;;;;5092579;28;20036;-50
2021/12/10 01:14:14;;;;;;;16.15;12.05;;;5.90;99.90;;;;;;5092511;28;20115;-47
2021/12/10 01:27:34;;;;;;;18.13;13.73;;;6.60;99.90;;;;;;5092801;28;20495;-50
2021/12/10 01:30:07;;;;;;;18.60;13.77;;;6.60;99.90;;;;;;5092410;28;20024;-48
2021/12/10 01:32:36;;;;;;;20.25;14.00;;;6.40;99.90;;;;;;5092281;28;20036;-51
2021/12/10 01:35:05;;;;;;;19.48;14.60;;;6.20;99.90;;;;;;5095357;28;20028;-50
2021/12/10 01:37:31;;;;;;;19.90;15.15;;;6.20;99.90;;;;;;5077422;28;20088;-49
2021/12/10 01:39:57;;;;;;;20.45;15.20;;;6.30;99.90;;;;;;5096448;28;20511;-48
2021/12/10 01:44:56;;;;;;;25.90;17.27;;;6.30;99.90;;;;;;5096341;28;20116;-46
2021/12/10 01:47:26;;;;;;;28.15;18.63;;;6.20;99.90;;;;;;5096313;28;20355;-48
2021/12/10 01:49:52;;;;;;;29.45;19.13;;;6.00;99.90;;;;;;5096059;28;20032;-45
2021/12/10 01:52:18;;;;;;;30.80;18.35;;;6.00;99.90;;;;;;5096166;28;20065;-46
2021/12/10 01:54:49;;;;;;;34.33;21.90;;;5.90;99.90;;;;;;5091882;28;20032;-47
2021/12/10 01:57:16;;;;;;;36.22;21.38;;;5.80;99.90;;;;;;5093858;28;20102;-46
2021/12/10 01:59:44;;;;;;;38.15;22.30;;;5.80;99.90;;;;;;5095196;28;20028;-47
2021/12/10 02:02:20;;;;;;;38.33;22.17;;;6.00;99.90;;;;;;5094983;28;20468;-50
2021/12/10 02:04:47;;;;;;;37.80;21.95;;;6.00;99.90;;;;;;5093429;28;20028;-48
2021/12/10 02:07:17;;;;;;;36.90;22.88;;;5.90;99.90;;;;;;5095236;28;20195;-48
2021/12/10 02:09:43;;;;;;;35.05;21.35;;;6.10;99.90;;;;;;5093621;28;20032;-49
2021/12/10 02:12:10;;;;;;;40.35;23.38;;;6.10;99.90;;;;;;5092990;28;20036;-47
2021/12/10 02:14:36;;;;;;;37.92;21.33;;;6.00;99.90;;;;;;5092472;28;20024;-47
2021/12/10 02:17:05;;;;;;;39.92;22.92;;;5.80;99.90;;;;;;5095611;28;20074;-46
2021/12/10 02:19:31;;;;;;;37.97;22.88;;;5.80;99.90;;;;;;5090338;28;20039;-50
2021/12/10 02:21:58;;;;;;;40.25;22.98;;;5.90;99.90;;;;;;5092205;28;20077;-49
2021/12/10 02:24:24;;;;;;;37.13;22.92;;;6.00;99.90;;;;;;5095322;28;20030;-58
2021/12/10 02:26:56;;;;;;;42.88;24.83;;;6.00;99.90;;;;;;5094640;28;20375;-52
2021/12/10 02:29:25;;;;;;;42.07;22.67;;;6.10;99.90;;;;;;5091715;28;20036;-55
2021/12/10 02:31:53;;;;;;;36.40;21.92;;;6.10;99.90;;;;;;5095129;28;20039;-54
2021/12/10 02:34:20;;;;;;;40.40;23.73;;;6.10;99.90;;;;;;5095514;28;20034;-54
2021/12/10 02:36:46;;;;;;;37.45;22.23;;;6.20;99.90;;;;;;5095783;28;20103;-54
2021/12/10 02:39:16;;;;;;;33.70;21.63;;;6.20;99.90;;;;;;5094732;28;20039;-55
2021/12/10 02:41:42;;;;;;;38.55;22.55;;;6.00;99.90;;;;;;5096194;28;20073;-51
2021/12/10 02:44:13;;;;;;;37.25;21.23;;;6.00;99.90;;;;;;5066847;28;20172;-52
2021/12/10 02:46:39;;;;;;;36.67;22.55;;;5.80;99.90;;;;;;5071985;28;20198;-52
2021/12/10 02:49:07;;;;;;;38.85;22.73;;;5.80;99.90;;;;;;5065185;28;20081;-53
2021/12/10 02:51:35;;;;;;;34.95;19.88;;;5.90;99.90;;;;;;5072408;28;20033;-52
2021/12/10 02:54:05;;;;;;;36.70;21.98;;;5.70;99.90;;;;;;5072052;28;20066;-49
2021/12/10 02:56:31;;;;;;;31.75;19.42;;;5.40;99.90;;;;;;5072310;28;20047;-47
2021/12/10 02:59:00;;;;;;;30.38;19.20;;;5.30;99.90;;;;;;5072574;28;20083;-51
2021/12/10 03:01:41;;;;;;;35.08;20.98;;;5.20;99.90;;;;;;5031936;28;20477;-52
2021/12/10 03:04:08;;;;;;;29.42;19.35;;;5.10;99.90;;;;;;5032232;28;20029;-51
2021/12/10 03:06:42;;;;;;;32.92;19.35;;;5.10;99.90;;;;;;5032458;28;20042;-54
2021/12/10 03:09:08;;;;;;;35.92;21.75;;;5.30;99.90;;;;;;5032020;28;20049;-48
2021/12/10 03:11:37;;;;;;;31.05;20.80;;;5.50;99.90;;;;;;5032199;28;20223;-50
2021/12/10 03:14:09;;;;;;;28.30;19.42;;;5.60;99.90;;;;;;5032127;28;20029;-52
2021/12/10 03:16:40;;;;;;;31.33;18.48;;;5.60;99.90;;;;;;5031561;28;20033;-48
2021/12/10 03:19:06;;;;;;;27.85;18.30;;;5.40;99.90;;;;;;4999074;28;20037;-48
2021/12/10 03:21:34;;;;;;;30.15;20.17;;;5.60;99.90;;;;;;5051032;28;20044;-50
2021/12/10 03:24:00;;;;;;;30.65;20.45;;;5.50;99.90;;;;;;5055098;28;20385;-52
2021/12/10 03:26:26;;;;;;;26.15;16.25;;;5.70;99.90;;;;;;5071773;28;20108;-53
2021/12/10 03:28:53;;;;;;;28.80;18.13;;;5.30;99.90;;;;;;5071817;28;20033;-51
2021/12/10 03:31:21;;;;;;;30.13;20.52;;;5.30;99.90;;;;;;5072500;28;20052;-53
2021/12/10 03:33:48;;;;;;;25.42;17.05;;;5.50;99.90;;;;;;5094230;28;20031;-54
2021/12/10 03:36:15;;;;;;;25.33;17.13;;;5.60;99.90;;;;;;5094017;28;20407;-52
2021/12/10 03:38:41;;;;;;;26.13;17.73;;;5.50;99.90;;;;;;5094399;28;20024;-47
2021/12/10 03:41:09;;;;;;;27.35;18.02;;;5.60;99.90;;;;;;5094237;28;20027;-51
2021/12/10 03:43:35;;;;;;;24.17;16.52;;;5.50;99.90;;;;;;5093961;28;20057;-57
2021/12/10 03:46:03;;;;;;;25.52;17.75;;;5.40;99.90;;;;;;5093695;28;20430;-51
2021/12/10 03:48:32;;;;;;;24.70;16.67;;;5.30;99.90;;;;;;5093793;28;20040;-56
2021/12/10 03:51:01;;;;;;;22.73;14.18;;;5.10;99.90;;;;;;5093969;28;20081;-55
2021/12/10 03:53:27;;;;;;;25.73;18.40;;;4.80;99.90;;;;;;5093906;28;20455;-55
2021/12/10 03:56:03;;;;;;;17.05;12.70;;;5.10;99.90;;;;;;5093699;28;20464;-54
2021/12/10 03:58:29;;;;;;;22.73;14.30;;;5.00;99.90;;;;;;5057020;28;20050;-52
2021/12/10 04:00:56;;;;;;;22.58;15.38;;;4.60;99.90;;;;;;5074505;28;20036;-51
2021/12/10 04:03:23;;;;;;;23.10;15.88;;;4.60;99.90;;;;;;5091546;28;20092;-55
2021/12/10 04:05:50;;;;;;;21.17;15.75;;;4.80;99.90;;;;;;5093891;28;20039;-48
2021/12/10 04:08:17;;;;;;;21.30;14.13;;;4.80;99.90;;;;;;5093706;28;20039;-53
2021/12/10 04:10:43;;;;;;;21.58;14.75;;;4.90;99.90;;;;;;5092154;28;20555;-52
2021/12/10 04:13:10;;;;;;;18.20;12.40;;;4.80;99.90;;;;;;5093478;28;20337;-50
2021/12/10 04:15:37;;;;;;;25.33;17.42;;;4.80;99.90;;;;;;5093182;28;20035;-51
2021/12/10 04:18:05;;;;;;;22.65;16.05;;;4.70;99.90;;;;;;5093746;28;20119;-56
2021/12/10 04:20:31;;;;;;;20.50;16.05;;;4.80;99.90;;;;;;5074451;28;20035;-56
2021/12/10 04:22:59;;;;;;;21.38;15.45;;;5.00;99.90;;;;;;5091378;28;20127;-57
2021/12/10 04:25:26;;;;;;;20.50;15.55;;;5.20;99.90;;;;;;5093236;28;20024;-55
2021/12/10 04:27:58;;;;;;;21.73;16.08;;;5.30;99.90;;;;;;5093672;28;20103;-53
2021/12/10 04:30:24;;;;;;;19.70;14.95;;;5.50;99.90;;;;;;5093364;28;20028;-57
2021/12/10 04:32:51;;;;;;;20.45;14.68;;;5.40;99.90;;;;;;5092725;28;20044;-53
2021/12/10 04:35:18;;;;;;;25.02;16.20;;;5.30;99.90;;;;;;5093388;28;20379;-54
2021/12/10 04:37:45;;;;;;;26.90;17.80;;;5.40;99.90;;;;;;5093017;28;20066;-53
2021/12/10 04:40:18;;;;;;;20.95;15.35;;;5.60;99.90;;;;;;5074076;28;20046;-51
2021/12/10 04:42:45;;;;;;;17.30;13.43;;;5.80;99.90;;;;;;5093212;28;20040;-55
2021/12/10 04:45:14;;;;;;;21.25;15.10;;;5.90;99.90;;;;;;5093256;28;20118;-53
2021/12/10 04:47:40;;;;;;;20.25;15.07;;;5.90;99.90;;;;;;5093591;28;20418;-59
2021/12/10 04:50:08;;;;;;;19.83;14.20;;;5.80;99.90;;;;;;5093137;28;20027;-54
2021/12/10 04:52:34;;;;;;;18.55;14.23;;;5.80;99.90;;;;;;5089981;28;20047;-55
2021/12/10 04:55:04;;;;;;;20.92;15.15;;;5.80;99.90;;;;;;5092727;28;20077;-52
2021/12/10 04:57:30;;;;;;;19.50;14.55;;;5.60;99.90;;;;;;5090051;28;20083;-53
2021/12/10 04:59:57;;;;;;;20.92;14.35;;;5.70;99.90;;;;;;5090478;28;20050;-49
2021/12/10 05:02:23;;;;;;;20.02;13.57;;;5.60;99.90;;;;;;5090244;28;20036;-52
2021/12/10 05:04:50;;;;;;;19.35;13.98;;;5.50;99.90;;;;;;5090438;28;20020;-52
2021/12/10 05:07:17;;;;;;;19.67;15.00;;;5.50;99.90;;;;;;5090383;28;20043;-56
2021/12/10 05:09:43;;;;;;;17.60;13.55;;;5.40;99.90;;;;;;5039938;28;20040;-53
2021/12/10 05:12:10;;;;;;;19.73;15.60;;;5.40;99.90;;;;;;5090212;28;20100;-54
2021/12/10 05:14:36;;;;;;;21.52;15.05;;;5.50;99.90;;;;;;5090297;28;20119;-53
2021/12/10 05:17:07;;;;;;;20.60;15.38;;;5.50;99.90;;;;;;5089956;28;20123;-53
2021/12/10 05:19:35;;;;;;;18.05;14.38;;;5.70;99.90;;;;;;5042181;28;20040;-51
2021/12/10 05:22:03;;;;;;;17.90;13.65;;;5.90;99.90;;;;;;5039625;28;20110;-50
2021/12/10 05:24:30;;;;;;;19.00;13.88;;;5.90;99.90;;;;;;5040459;28;20050;-51
2021/12/10 05:26:57;;;;;;;18.00;13.52;;;6.00;99.90;;;;;;5090037;28;20189;-53
2021/12/10 05:29:23;;;;;;;18.73;13.02;;;6.10;99.90;;;;;;5092140;28;20040;-56
2021/12/10 05:31:50;;;;;;;18.15;14.43;;;6.20;99.90;;;;;;5090044;28;20038;-55
2021/12/10 05:34:17;;;;;;;17.92;13.95;;;6.20;99.90;;;;;;5092484;28;20112;-54
2021/12/10 05:36:44;;;;;;;18.48;13.48;;;6.10;99.90;;;;;;5092211;28;20030;-59
2021/12/10 05:39:14;;;;;;;16.45;13.75;;;6.00;99.90;;;;;;5090325;28;20468;-48
2021/12/10 05:41:40;;;;;;;16.67;13.02;;;6.10;99.90;;;;;;5090351;28;20107;-52
2021/12/10 05:44:07;;;;;;;18.13;13.20;;;6.10;99.90;;;;;;5092123;28;20085;-52
2021/12/10 05:46:34;;;;;;;18.92;14.13;;;6.10;99.90;;;;;;5090057;28;20059;-54
2021/12/10 05:49:00;;;;;;;15.77;13.18;;;6.10;99.90;;;;;;5091936;28;20082;-53
2021/12/10 05:51:26;;;;;;;20.52;16.65;;;6.10;99.90;;;;;;5091665;28;20456;-54
2021/12/10 05:53:52;;;;;;;18.40;14.45;;;5.80;99.90;;;;;;5092128;28;20035;-50
2021/12/10 05:56:18;;;;;;;18.25;12.88;;;5.70;99.90;;;;;;5092438;28;20056;-52
2021/12/10 05:58:44;;;;;;;17.35;14.10;;;5.90;99.90;;;;;;5092298;28;20053;-56
2021/12/10 06:01:14;;;;;;;19.33;13.93;;;5.90;99.90;;;;;;5091332;28;20016;-54
2021/12/10 06:03:41;;;;;;;17.27;13.85;;;5.90;99.90;;;;;;5089508;28;20345;-54
2021/12/10 06:06:08;;;;;;;18.10;14.40;;;5.90;99.90;;;;;;5086508;28;20024;-54
2021/12/10 06:08:35;;;;;;;25.45;17.40;;;5.90;99.90;;;;;;5089917;28;20024;-49
2021/12/10 06:11:02;;;;;;;23.63;17.48;;;5.90;99.90;;;;;;5091463;28;20078;-54
2021/12/10 06:13:28;;;;;;;21.60;16.25;;;5.90;99.90;;;;;;5092071;28;20456;-54
2021/12/10 06:15:54;;;;;;;16.05;12.90;;;5.90;99.90;;;;;;5089800;28;20044;-55
2021/12/10 06:18:21;;;;;;;18.70;12.98;;;6.00;99.90;;;;;;5091630;28;20024;-53
2021/12/10 06:20:51;;;;;;;18.75;13.68;;;6.10;99.90;;;;;;5092633;28;20028;-52
2021/12/10 06:23:18;;;;;;;20.92;14.70;;;6.00;99.90;;;;;;5076581;28;20039;-52
2021/12/10 06:25:45;;;;;;;19.73;14.40;;;5.90;99.90;;;;;;5095272;28;20070;-55
2021/12/10 06:28:11;;;;;;;21.77;15.82;;;6.00;99.90;;;;;;5093793;28;20043;-49
2021/12/10 06:30:41;;;;;;;17.90;14.73;;;6.00;99.90;;;;;;5095900;28;20051;-51
2021/12/10 06:33:11;;;;;;;17.63;13.88;;;6.00;99.90;;;;;;5087978;28;20531;-51
2021/12/10 06:35:39;;;;;;;18.65;13.65;;;5.90;99.90;;;;;;5094682;28;20478;-51
2021/12/10 06:38:06;;;;;;;18.80;14.02;;;5.90;99.90;;;;;;5094560;28;20053;-52
2021/12/10 06:40:34;;;;;;;19.58;13.70;;;6.00;99.90;;;;;;5073450;28;20044;-56
2021/12/10 06:43:01;;;;;;;17.95;13.90;;;6.10;99.90;;;;;;5095349;28;20139;-50
2021/12/10 06:45:28;;;;;;;18.30;14.00;;;6.10;99.90;;;;;;5092896;28;20036;-56
2021/12/10 06:47:58;;;;;;;18.25;14.43;;;6.10;99.90;;;;;;5092950;28;20039;-54
2021/12/10 06:50:26;;;;;;;17.95;14.60;;;6.20;99.90;;;;;;5095141;28;20201;-56
2021/12/10 06:52:53;;;;;;;17.48;14.15;;;6.30;99.90;;;;;;5095156;28;20534;-53
2021/12/10 06:55:20;;;;;;;16.73;13.88;;;6.20;99.90;;;;;;5095406;28;20100;-50
2021/12/10 06:57:47;;;;;;;18.50;14.57;;;6.30;99.90;;;;;;5095172;28;20020;-52
2021/12/10 07:00:22;;;;;;;21.25;14.70;;;6.30;99.90;;;;;;5095007;28;20533;-52
2021/12/10 07:02:48;;;;;;;21.80;16.25;;;6.20;99.90;;;;;;5095199;28;20058;-56
2021/12/10 07:05:15;;;;;;;20.73;16.40;;;6.20;99.90;;;;;;5092776;28;20040;-53
2021/12/10 07:07:45;;;;;;;23.23;18.05;;;6.20;99.90;;;;;;5095271;28;20055;-48
2021/12/10 07:10:12;;;;;;;23.75;17.33;;;6.20;99.90;;;;;;5094925;28;20464;-50
2021/12/10 07:12:39;;;;;;;22.90;16.52;;;6.10;99.90;;;;;;5095132;28;20123;-53
2021/12/10 07:15:09;;;;;;;23.45;17.05;;;6.10;99.90;;;;;;5094269;28;20019;-54
2021/12/10 07:17:37;;;;;;;26.05;18.85;;;6.10;99.90;;;;;;5075191;28;20482;-54
2021/12/10 07:20:06;;;;;;;23.23;17.75;;;6.00;99.90;;;;;;5088957;28;20520;-51
2021/12/10 07:22:32;;;;;;;23.80;17.40;;;6.00;99.90;;;;;;5003172;28;20076;-55
2021/12/10 07:24:58;;;;;;;27.80;21.10;;;6.00;99.90;;;;;;5036010;28;20036;-50
2021/12/10 07:27:24;;;;;;;59.75;35.35;;;6.00;99.90;;;;;;5070567;28;20059;-58
2021/12/10 07:29:49;;;;;;;56.10;37.83;;;6.00;99.90;;;;;;5022038;28;20037;-57
2021/12/10 07:32:15;;;;;;;70.75;50.15;;;5.80;99.90;;;;;;5071685;28;20115;-52
2021/12/10 07:34:41;;;;;;;48.08;34.63;;;5.90;99.90;;;;;;5066605;28;20071;-56
2021/12/10 07:37:09;;;;;;;74.85;55.25;;;5.90;99.90;;;;;;5035796;28;20369;-51
2021/12/10 07:39:37;;;;;;;24.55;18.98;;;6.00;99.90;;;;;;5053769;28;20128;-53
2021/12/10 07:42:07;;;;;;;38.50;26.75;;;6.20;99.90;;;;;;5071238;28;20032;-55
2021/12/10 07:44:37;;;;;;;32.17;23.67;;;6.20;99.90;;;;;;5010765;28;20034;-58
2021/12/10 07:47:09;;;;;;;33.53;24.10;;;6.10;99.90;;;;;;5009103;28;20142;-50
2021/12/10 07:49:37;;;;;;;31.30;22.98;;;6.00;99.90;;;;;;5010663;28;20763;-54
2021/12/10 07:52:14;;;;;;;22.88;17.00;;;5.80;99.90;;;;;;5010973;28;20140;-53
2021/12/10 07:54:41;;;;;;;28.35;20.25;;;5.90;99.90;;;;;;5011554;28;20049;-52
2021/12/10 07:57:06;;;;;;;28.40;21.45;;;5.80;99.90;;;;;;5011594;28;20390;-53
2021/12/10 07:59:34;;;;;;;40.55;29.27;;;5.80;99.90;;;;;;5023043;28;20039;-57
2021/12/10 08:02:01;;;;;;;52.92;40.78;;;5.90;99.90;;;;;;5048937;28;20064;-56
2021/12/10 08:04:27;;;;;;;35.03;25.40;;;5.80;99.90;;;;;;5050894;28;20119;-55
2021/12/10 08:06:53;;;;;;;27.42;19.73;;;5.90;99.90;;;;;;5050540;28;20044;-53
2021/12/10 08:09:19;;;;;;;36.35;25.50;;;5.90;99.90;;;;;;5050665;28;21541;-48
2021/12/10 08:11:45;;;;;;;26.02;19.08;;;6.00;99.90;;;;;;5016427;28;20424;-51
2021/12/10 08:14:11;;;;;;;27.30;21.42;;;6.10;99.90;;;;;;5050666;28;20448;-49
2021/12/10 08:16:39;;;;;;;33.22;25.35;;;6.20;99.90;;;;;;5090987;28;20054;-53
2021/12/10 08:19:06;;;;;;;46.58;30.58;;;6.30;99.90;;;;;;5092839;28;20114;-51
2021/12/10 08:21:32;;;;;;;39.72;29.33;;;6.50;99.90;;;;;;5090637;28;20032;-49
2021/12/10 08:23:59;;;;;;;26.48;19.98;;;6.30;99.90;;;;;;5092938;28;20034;-52
2021/12/10 08:26:25;;;;;;;32.70;24.30;;;6.40;99.90;;;;;;5090903;28;20143;-55
2021/12/10 08:28:51;;;;;;;35.58;27.38;;;6.50;99.90;;;;;;5092744;28;20523;-54
2021/12/10 08:31:18;;;;;;;23.58;18.30;;;6.70;99.90;;;;;;5068272;28;20071;-56
2021/12/10 08:33:47;;;;;;;23.67;18.05;;;6.70;99.90;;;;;;5018512;28;20053;-52
2021/12/10 08:36:15;;;;;;;36.33;24.45;;;6.80;99.90;;;;;;5038273;28;20044;-58
2021/12/10 08:38:41;;;;;;;40.03;28.17;;;6.70;99.90;;;;;;5070670;28;20476;-53
2021/12/10 08:41:12;;;;;;;69.90;39.42;;;6.70;99.90;;;;;;5054373;28;20062;-54
2021/12/10 08:43:38;;;;;;;23.63;17.30;;;6.90;99.90;;;;;;5070201;28;20025;-54
2021/12/10 08:46:05;;;;;;;46.22;30.02;;;7.00;99.90;;;;;;5070346;28;20068;-49
2021/12/10 08:48:33;;;;;;;30.65;24.38;;;7.20;99.90;;;;;;5054051;28;20041;-53
2021/12/10 08:51:13;;;;;;;23.77;18.50;;;7.20;99.90;;;;;;5068125;28;20038;-51
2021/12/10 08:53:39;;;;;;;20.05;15.60;;;7.30;99.90;;;;;;5070605;28;20032;-51
2021/12/10 08:56:05;;;;;;;20.95;16.00;;;7.20;99.90;;;;;;5070329;28;20040;-51
2021/12/10 08:58:32;;;;;;;22.02;17.50;;;7.20;99.90;;;;;;5070442;28;20032;-52
2021/12/10 09:01:08;;;;;;;21.85;18.20;;;7.30;99.90;;;;;;5070096;28;20060;-50
2021/12/10 09:03:34;;;;;;;22.48;17.48;;;7.30;99.90;;;;;;5091645;28;20032;-50
2021/12/10 09:06:02;;;;;;;19.60;15.48;;;7.40;99.90;;;;;;5093219;28;20028;-50
2021/12/10 09:08:28;;;;;;;21.95;15.80;;;7.50;99.90;;;;;;5092969;28;20031;-50
2021/12/10 09:10:54;;;;;;;19.60;16.02;;;7.30;99.90;;;;;;5092867;28;20028;-50
2021/12/10 09:13:20;;;;;;;28.23;21.15;;;7.50;99.90;;;;;;5092703;28;20039;-51
2021/12/10 09:15:51;;;;;;;28.15;20.75;;;7.40;99.90;;;;;;5091247;28;20072;-49
2021/12/10 09:18:17;;;;;;;44.88;32.10;;;7.60;99.90;;;;;;5093035;28;20116;-50
2021/12/10 09:20:48;;;;;;;31.35;24.85;;;7.30;99.90;;;;;;5091613;28;20785;-51
2021/12/10 09:23:17;;;;;;;24.63;19.70;;;7.40;99.90;;;;;;5090089;28;20534;-51
2021/12/10 09:25:43;;;;;;;22.67;17.75;;;7.40;99.90;;;;;;5073959;28;20103;-50
2021/12/10 09:28:09;;;;;;;24.75;18.48;;;7.40;99.90;;;;;;5092719;28;20368;-51
2021/12/10 09:30:39;;;;;;;22.13;16.65;;;7.40;99.90;;;;;;5090808;28;20028;-50
2021/12/10 09:33:05;;;;;;;26.90;19.50;;;7.60;99.90;;;;;;5092517;28;20032;-50
2021/12/10 09:35:33;;;;;;;26.65;22.92;;;7.40;99.90;;;;;;5057372;28;20032;-50
2021/12/10 09:37:59;;;;;;;24.48;18.67;;;7.40;99.90;;;;;;5090202;28;20629;-51
2021/12/10 09:40:31;;;;;;;23.92;17.05;;;7.40;99.90;;;;;;5090077;28;20111;-50
2021/12/10 09:42:58;;;;;;;22.38;17.42;;;7.40;99.90;;;;;;5091937;28;20044;-52
2021/12/10 09:45:31;;;;;;;26.10;20.10;;;7.50;99.90;;;;;;5023675;28;20535;-50
2021/12/10 09:47:58;;;;;;;27.05;19.92;;;7.50;99.90;;;;;;5090360;28;20146;-50
2021/12/10 09:50:27;;;;;;;27.02;19.30;;;7.50;99.90;;;;;;5090455;28;20035;-50
2021/12/10 09:52:54;;;;;;;22.98;17.60;;;7.50;99.90;;;;;;5090075;28;20526;-49
2021/12/10 09:55:21;;;;;;;25.63;19.63;;;7.40;99.90;;;;;;5089879;28;20138;-50
2021/12/10 09:57:50;;;;;;;21.38;16.92;;;7.40;99.90;;;;;;5093935;28;20059;-50
2021/12/10 10:00:26;;;;;;;24.73;18.67;;;7.40;99.90;;;;;;5081480;28;20103;-51
2021/12/10 10:02:53;;;;;;;27.05;20.98;;;7.40;99.90;;;;;;5071304;28;20071;-51
2021/12/10 10:05:21;;;;;;;31.15;21.60;;;7.60;99.90;;;;;;5073807;28;20064;-51
2021/12/10 10:07:51;;;;;;;24.80;17.63;;;7.30;99.90;;;;;;5072117;28;20082;-51
2021/12/10 10:10:19;;;;;;;25.15;19.38;;;7.60;99.90;;;;;;5097774;28;20476;-52
2021/12/10 10:12:48;;;;;;;24.50;18.88;;;7.70;99.90;;;;;;5059543;28;20044;-51
2021/12/10 10:15:21;;;;;;;23.15;18.13;;;7.40;99.90;;;;;;5093575;28;20035;-51
2021/12/10 10:17:48;;;;;;;23.00;18.52;;;7.10;99.90;;;;;;5093414;28;20127;-51
2021/12/10 10:20:16;;;;;;;27.25;18.20;;;7.50;99.90;;;;;;5093546;28;20052;-51
2021/12/10 10:22:44;;;;;;;25.52;18.55;;;7.50;99.90;;;;;;5093384;28;20039;-51
2021/12/10 10:25:14;;;;;;;19.08;15.35;;;7.90;99.90;;;;;;5093871;28;20077;-50
2021/12/10 10:27:41;;;;;;;25.98;18.02;;;8.20;99.90;;;;;;5061673;28;20098;-51
2021/12/10 10:30:24;;;;;;;22.40;16.83;;;8.50;99.90;;;;;;5074267;28;20042;-51
2021/12/10 10:32:51;;;;;;;23.90;18.30;;;8.30;99.90;;;;;;5049478;28;20041;-50
2021/12/10 10:35:22;;;;;;;23.88;18.60;;;8.60;99.90;;;;;;5052478;28;20469;-49
2021/12/10 10:37:49;;;;;;;27.58;20.15;;;8.70;99.90;;;;;;5052768;28;20044;-49
2021/12/10 10:40:21;;;;;;;25.30;20.00;;;8.50;99.90;;;;;;5052872;28;20037;-49
2021/12/10 10:42:47;;;;;;;23.13;18.00;;;8.70;99.90;;;;;;5054356;28;20033;-50
2021/12/10 10:45:20;;;;;;;21.40;17.83;;;8.80;99.90;;;;;;5072201;28;20134;-49
2021/12/10 10:47:47;;;;;;;23.73;19.75;;;9.00;99.90;;;;;;5065624;28;20614;-49
2021/12/10 10:50:19;;;;;;;22.65;17.92;;;8.90;99.90;;;;;;5055199;28;20031;-49
2021/12/10 10:52:47;;;;;;;;;;;8.60;99.90;;;;;;5068853;28;20063;-49
2021/12/10 10:55:12;;;;;;;20.60;16.40;;;8.80;99.90;;;;;;5070373;28;19912;-49
2021/12/10 10:57:49;;;;;;;22.48;17.52;;;8.80;99.90;;;;;;5071504;28;20124;-49
2021/12/10 11:00:29;;;;;;;70.53;47.55;;;8.40;99.90;;;;;;5071887;28;20489;-49
2021/12/10 11:03:04;;;;;;;136.65;85.35;;;8.60;99.90;;;;;;5028731;28;20052;-49
2021/12/10 11:05:31;;;;;;;59.72;38.40;;;7.90;99.90;;;;;;5059977;28;20491;-49
2021/12/10 11:08:00;;;;;;;37.05;23.63;;;8.10;99.90;;;;;;5056614;28;20063;-49
2021/12/10 11:10:33;;;;;;;26.02;19.67;;;7.40;99.90;;;;;;5035481;28;20032;-49
2021/12/10 11:13:25;;;;;;;20.15;15.73;;;7.20;99.90;;;;;;5053932;28;20501;-55
2021/12/10 11:16:12;;;;;;;29.27;19.63;;;6.70;99.90;;;;;;5037144;28;20030;-45
2021/12/10 11:18:55;;;;;;;30.83;20.92;;;6.90;99.90;;;;;;5034033;28;20040;-46
2021/12/10 11:21:38;;;;;;;;;;;7.30;99.90;;;;;;5013809;28;20061;-45
2021/12/10 11:24:42;;;;;;;14.45;11.77;;;7.00;99.90;;;;;;5048153;28;19948;-45
2021/12/10 11:27:19;;;;;;;22.60;16.88;;;6.40;99.90;;;;;;5049872;28;20875;-48
2021/12/10 11:29:53;;;;;;;20.17;16.33;;;6.30;99.90;;;;;;5018299;28;20504;-48
2021/12/10 11:32:40;;;;;;;19.33;15.60;;;6.80;99.90;;;;;;5018126;28;20057;-54
2021/12/10 11:35:09;;;;;;;18.27;13.88;;;6.60;99.90;;;;;;5071791;28;20032;-48
2021/12/10 11:37:43;;;;;;;21.58;16.73;;;6.50;99.90;;;;;;5067238;28;20043;-48
2021/12/10 11:40:27;;;;;;;21.20;16.65;;;6.30;99.90;;;;;;5069838;28;20032;-48
2021/12/10 11:43:00;;;;;;;26.55;17.73;;;6.10;99.90;;;;;;5071598;28;20055;-48
2021/12/10 11:45:33;;;;;;;25.38;19.27;;;6.30;99.90;;;;;;5071898;28;20162;-48
2021/12/10 11:48:10;;;;;;;27.02;18.83;;;6.60;99.90;;;;;;5071577;28;20041;-47
2021/12/10 11:50:45;;;;;;;21.85;18.15;;;6.80;99.90;;;;;;5051171;28;20745;-47
2021/12/10 11:53:15;;;;;;;24.05;18.63;;;6.50;99.90;;;;;;5048599;28;20069;-47
2021/12/10 11:56:04;;;;;;;24.80;19.20;;;6.60;99.90;;;;;;5034474;28;20501;-48
2021/12/10 11:58:30;;;;;;;20.27;16.55;;;7.00;99.90;;;;;;5051455;28;20385;-48
2021/12/10 12:00:57;;;;;;;22.70;17.63;;;7.00;99.90;;;;;;5051319;28;20037;-49
2021/12/10 12:03:31;;;;;;;23.55;17.85;;;6.90;99.90;;;;;;5033876;28;20545;-49
2021/12/10 12:05:57;;;;;;;16.90;13.80;;;7.10;99.90;;;;;;5033233;28;20040;-48
2021/12/10 12:08:24;;;;;;;21.52;16.20;;;7.10;99.90;;;;;;5068327;28;20037;-48
2021/12/10 12:10:55;;;;;;;17.55;13.43;;;7.40;99.90;;;;;;5071100;28;20032;-48
2021/12/10 12:13:30;;;;;;;27.55;18.23;;;6.50;99.90;;;;;;5068280;28;20055;-48
2021/12/10 12:16:03;;;;;;;21.33;14.48;;;6.50;99.90;;;;;;5070783;28;20044;-49
2021/12/10 12:18:31;;;;;;;47.75;24.45;;;6.30;99.90;;;;;;5070356;28;20040;-48
2021/12/10 12:27:06;;;;;;;26.17;18.15;;;5.90;99.90;;;;;;5074184;28;20043;-49
2021/12/10 12:29:44;;;;;;;27.33;18.42;;;5.90;99.90;;;;;;5074274;28;20063;-48
2021/12/10 12:32:20;;;;;;;28.27;20.45;;;6.00;99.90;;;;;;5093456;28;20043;-48
2021/12/10 12:34:47;;;;;;;31.27;20.17;;;6.10;99.90;;;;;;5093315;28;20024;-47
2021/12/10 12:37:15;;;;;;;20.85;15.88;;;6.40;99.90;;;;;;5093542;28;20487;-49
2021/12/10 12:39:50;;;;;;;24.35;17.65;;;6.20;99.90;;;;;;5093645;28;20059;-48
2021/12/10 12:42:22;;;;;;;22.42;14.50;;;6.00;99.90;;;;;;5093603;28;20024;-47
2021/12/10 12:44:52;;;;;;;26.42;18.20;;;5.80;99.90;;;;;;5093093;28;20036;-48
2021/12/10 12:47:32;;;;;;;23.52;15.50;;;6.00;99.90;;;;;;5093122;28;20059;-48
2021/12/10 12:50:07;;;;;;;22.63;16.83;;;5.90;99.90;;;;;;5093306;28;20032;-48
2021/12/10 12:52:43;;;;;;;25.48;17.70;;;6.00;99.90;;;;;;5074364;28;20135;-49
2021/12/10 12:55:19;;;;;;;22.02;16.23;;;6.10;99.90;;;;;;5074235;28;20145;-47
2021/12/10 12:57:48;;;;;;;22.15;14.93;;;6.10;99.90;;;;;;5092839;28;20110;-49
2021/12/10 13:00:32;;;;;;;22.08;15.40;;;6.20;99.90;;;;;;5092959;28;20384;-49
2021/12/10 13:03:03;;;;;;;26.13;17.52;;;6.00;99.90;;;;;;5092776;28;20038;-49
2021/12/10 13:05:36;;;;;;;21.83;15.85;;;6.10;99.90;;;;;;5093026;28;20024;-48
2021/12/10 13:08:12;;;;;;;20.77;15.95;;;5.90;99.90;;;;;;5091815;28;20035;-48
2021/12/10 13:10:41;;;;;;;21.30;15.40;;;6.10;99.90;;;;;;5092891;28;20020;-48